sensor_id;sensor_type;location;lat;lon;timestamp;pressure;altitude;pressure_sealevel;temperature;humidity
42859;BME280;28505;56.970;40.998;2023-02-03T00:00:15;99605.09;;;-2.05;100.00
42859;BME280;28505;56.970;40.998;2023-02-03T00:05:37;99599.47;;;-2.09;100.00
42859;BME280;28505;56.970;40.998;2023-02-03T00:11:00;99588.97;;;-2.16;100.00
42859;BME280;28505;56.970;40.998;2023-02-03T00:16:22;99599.09;;;-2.13;100.00
42859;BME280;28505;56.970;40.998;2023-02-03T00:21:45;99574.06;;;-2.28;100.00
42859;BME280;28505;56.970;40.998;2023-02-03T00:27:07;99598.84;;;-2.11;100.00
42859;BME280;28505;56.970;40.998;2023-02-03T00:32:29;99602.75;;;-2.14;100.00
42859;BME280;28505;56.970;40.998;2023-02-03T00:37:53;99606.78;;;-2.11;100.00
42859;BME280;28505;56.970;40.998;2023-02-03T00:43:15;99595.91;;;-2.21;100.00
42859;BME280;28505;56.970;40.998;2023-02-03T00:48:37;99570.88;;;-2.37;100.00
42859;BME280;28505;56.970;40.998;2023-02-03T00:53:59;99609.84;;;-2.14;100.00
42859;BME280;28505;56.970;40.998;2023-02-03T00:59:22;99612.34;;;-2.19;100.00
42859;BME280;28505;56.970;40.998;2023-02-03T01:04:44;99580.22;;;-2.34;100.00
42859;BME280;28505;56.970;40.998;2023-02-03T01:10:06;99601.63;;;-2.24;100.00
42859;BME280;28505;56.970;40.998;2023-02-03T01:15:28;99592.38;;;-2.33;100.00
42859;BME280;28505;56.970;40.998;2023-02-03T01:20:51;99590.09;;;-2.30;100.00
42859;BME280;28505;56.970;40.998;2023-02-03T01:26:15;99584.25;;;-2.32;100.00
42859;BME280;28505;56.970;40.998;2023-02-03T01:31:39;99572.50;;;-2.36;100.00
42859;BME280;28505;56.970;40.998;2023-02-03T01:37:01;99565.84;;;-2.39;100.00
42859;BME280;28505;56.970;40.998;2023-02-03T01:42:24;99564.06;;;-2.45;100.00
42859;BME280;28505;56.970;40.998;2023-02-03T01:47:49;99573.16;;;-2.41;100.00
42859;BME280;28505;56.970;40.998;2023-02-03T01:53:13;99554.38;;;-2.51;100.00
42859;BME280;28505;56.970;40.998;2023-02-03T01:58:38;99557.81;;;-2.50;100.00
42859;BME280;28505;56.970;40.998;2023-02-03T02:04:03;99546.03;;;-2.48;100.00
42859;BME280;28505;56.970;40.998;2023-02-03T02:09:29;99535.53;;;-2.54;100.00
42859;BME280;28505;56.970;40.998;2023-02-03T02:14:51;99538.91;;;-2.47;100.00
42859;BME280;28505;56.970;40.998;2023-02-03T02:43:27;99558.78;;;-2.45;100.00
42859;BME280;28505;56.970;40.998;2023-02-03T02:49:06;99556.56;;;-2.48;100.00
42859;BME280;28505;56.970;40.998;2023-02-03T02:54:34;99544.69;;;-2.57;100.00
42859;BME280;28505;56.970;40.998;2023-02-03T03:00:00;99528.09;;;-2.64;100.00
42859;BME280;28505;56.970;40.998;2023-02-03T03:05:24;99515.19;;;-2.72;100.00
42859;BME280;28505;56.970;40.998;2023-02-03T03:10:52;99531.75;;;-2.65;100.00
42859;BME280;28505;56.970;40.998;2023-02-03T03:16:24;99543.50;;;-2.61;100.00
42859;BME280;28505;56.970;40.998;2023-02-03T03:21:56;99547.97;;;-2.62;100.00
42859;BME280;28505;56.970;40.998;2023-02-03T03:27:28;99555.66;;;-2.60;100.00
42859;BME280;28505;56.970;40.998;2023-02-03T03:32:50;99524.13;;;-2.73;100.00
42859;BME280;28505;56.970;40.998;2023-02-03T03:38:22;99536.88;;;-2.70;100.00
42859;BME280;28505;56.970;40.998;2023-02-03T03:43:46;99523.16;;;-2.79;100.00
42859;BME280;28505;56.970;40.998;2023-02-03T03:49:11;99559.53;;;-2.63;100.00
42859;BME280;28505;56.970;40.998;2023-02-03T03:54:36;99549.66;;;-2.67;100.00
42859;BME280;28505;56.970;40.998;2023-02-03T03:59:59;99537.97;;;-2.78;100.00
42859;BME280;28505;56.970;40.998;2023-02-03T04:05:32;99549.22;;;-2.64;100.00
42859;BME280;28505;56.970;40.998;2023-02-03T04:10:54;99555.06;;;-2.62;100.00
42859;BME280;28505;56.970;40.998;2023-02-03T04:16:17;99547.97;;;-2.62;100.00
42859;BME280;28505;56.970;40.998;2023-02-03T04:21:38;99538.06;;;-2.66;100.00
42859;BME280;28505;56.970;40.998;2023-02-03T04:27:03;99543.19;;;-2.71;100.00
42859;BME280;28505;56.970;40.998;2023-02-03T04:32:26;99549.03;;;-2.69;100.00
42859;BME280;28505;56.970;40.998;2023-02-03T04:37:48;99538.13;;;-2.73;100.00
42859;BME280;28505;56.970;40.998;2023-02-03T04:43:10;99539.53;;;-2.70;100.00
42859;BME280;28505;56.970;40.998;2023-02-03T04:48:33;99550.22;;;-2.65;100.00
42859;BME280;28505;56.970;40.998;2023-02-03T04:53:55;99544.38;;;-2.67;100.00
42859;BME280;28505;56.970;40.998;2023-02-03T04:59:17;99547.59;;;-2.65;100.00
42859;BME280;28505;56.970;40.998;2023-02-03T05:04:39;99545.38;;;-2.68;100.00
42859;BME280;28505;56.970;40.998;2023-02-03T05:10:01;99532.47;;;-2.76;100.00
42859;BME280;28505;56.970;40.998;2023-02-03T05:15:23;99528.66;;;-2.80;100.00
42859;BME280;28505;56.970;40.998;2023-02-03T05:20:45;99536.94;;;-2.77;100.00
42859;BME280;28505;56.970;40.998;2023-02-03T05:26:07;99533.13;;;-2.81;100.00
42859;BME280;28505;56.970;40.998;2023-02-03T05:31:29;99528.50;;;-2.86;100.00
42859;BME280;28505;56.970;40.998;2023-02-03T05:36:51;99549.72;;;-2.74;100.00
42859;BME280;28505;56.970;40.998;2023-02-03T05:42:13;99542.72;;;-2.68;100.00
42859;BME280;28505;56.970;40.998;2023-02-03T05:47:35;99550.22;;;-2.65;100.00
42859;BME280;28505;56.970;40.998;2023-02-03T05:52:57;99536.28;;;-2.72;100.00
42859;BME280;28505;56.970;40.998;2023-02-03T05:58:19;99541.88;;;-2.62;100.00
42859;BME280;28505;56.970;40.998;2023-02-03T06:03:41;99532.53;;;-2.58;100.00
42859;BME280;28505;56.970;40.998;2023-02-03T06:09:07;99541.44;;;-2.59;100.00
42859;BME280;28505;56.970;40.998;2023-02-03T06:14:32;99548.28;;;-2.51;100.00
42859;BME280;28505;56.970;40.998;2023-02-03T06:19:53;99510.50;;;-2.70;100.00
42859;BME280;28505;56.970;40.998;2023-02-03T06:25:15;99545.97;;;-2.41;100.00
42859;BME280;28505;56.970;40.998;2023-02-03T06:30:38;99537.66;;;-2.45;100.00
42859;BME280;28505;56.970;40.998;2023-02-03T06:36:00;99533.56;;;-2.41;100.00
42859;BME280;28505;56.970;40.998;2023-02-03T06:41:22;99542.66;;;-2.37;100.00
42859;BME280;28505;56.970;40.998;2023-02-03T06:46:49;99526.25;;;-2.39;100.00
42859;BME280;28505;56.970;40.998;2023-02-03T06:52:14;99544.72;;;-2.20;100.00
42859;BME280;28505;56.970;40.998;2023-02-03T06:57:45;99531.00;;;-2.29;100.00
42859;BME280;28505;56.970;40.998;2023-02-03T07:03:07;99531.50;;;-2.20;100.00
42859;BME280;28505;56.970;40.998;2023-02-03T07:08:33;99543.84;;;-2.14;100.00
42859;BME280;28505;56.970;40.998;2023-02-03T07:13:55;99529.31;;;-2.23;100.00
42859;BME280;28505;56.970;40.998;2023-02-03T07:19:18;99542.22;;;-2.15;100.00
42859;BME280;28505;56.970;40.998;2023-02-03T07:24:43;99544.88;;;-2.15;100.00
42859;BME280;28505;56.970;40.998;2023-02-03T07:30:06;99537.31;;;-2.12;100.00
42859;BME280;28505;56.970;40.998;2023-02-03T07:35:32;99531.22;;;-2.12;100.00
42859;BME280;28505;56.970;40.998;2023-02-03T07:40:55;99515.47;;;-2.19;100.00
42859;BME280;28505;56.970;40.998;2023-02-03T07:46:17;99517.78;;;-2.10;100.00
42859;BME280;28505;56.970;40.998;2023-02-03T07:52:05;99539.72;;;-1.92;100.00
42859;BME280;28505;56.970;40.998;2023-02-03T07:57:29;99523.34;;;-2.00;100.00
42859;BME280;28505;56.970;40.998;2023-02-03T08:02:51;99536.91;;;-1.78;100.00
42859;BME280;28505;56.970;40.998;2023-02-03T08:08:12;99537.94;;;-1.79;100.00
42859;BME280;28505;56.970;40.998;2023-02-03T08:13:35;99531.78;;;-1.92;100.00
42859;BME280;28505;56.970;40.998;2023-02-03T08:18:57;99525.19;;;-1.82;100.00
42859;BME280;28505;56.970;40.998;2023-02-03T08:24:19;99532.22;;;-1.76;100.00
42859;BME280;28505;56.970;40.998;2023-02-03T08:29:42;99534.19;;;-1.72;100.00
42859;BME280;28505;56.970;40.998;2023-02-03T08:35:05;99532.50;;;-1.66;100.00
42859;BME280;28505;56.970;40.998;2023-02-03T08:40:27;99528.50;;;-1.57;100.00
42859;BME280;28505;56.970;40.998;2023-02-03T08:45:49;99519.19;;;-1.59;100.00
42859;BME280;28505;56.970;40.998;2023-02-03T08:51:15;99524.47;;;-1.59;100.00
42859;BME280;28505;56.970;40.998;2023-02-03T08:56:39;99523.34;;;-1.52;100.00
42859;BME280;28505;56.970;40.998;2023-02-03T09:02:03;99525.00;;;-1.39;100.00
42859;BME280;28505;56.970;40.998;2023-02-03T09:07:25;99525.00;;;-1.39;100.00
42859;BME280;28505;56.970;40.998;2023-02-03T09:12:47;99516.94;;;-1.44;100.00
42859;BME280;28505;56.970;40.998;2023-02-03T09:18:10;99518.09;;;-1.40;100.00
42859;BME280;28505;56.970;40.998;2023-02-03T09:23:32;99516.75;;;-1.31;100.00
42859;BME280;28505;56.970;40.998;2023-02-03T09:28:54;99507.03;;;-1.49;100.00
42859;BME280;28505;56.970;40.998;2023-02-03T09:34:18;99511.69;;;-1.32;100.00
42859;BME280;28505;56.970;40.998;2023-02-03T09:39:41;99512.03;;;-1.29;100.00
42859;BME280;28505;56.970;40.998;2023-02-03T09:45:16;99505.91;;;-1.41;100.00
42859;BME280;28505;56.970;40.998;2023-02-03T09:50:43;99505.09;;;-1.42;100.00
42859;BME280;28505;56.970;40.998;2023-02-03T09:56:17;99488.78;;;-1.50;100.00
42859;BME280;28505;56.970;40.998;2023-02-03T10:01:56;99481.19;;;-1.47;100.00
42859;BME280;28505;56.970;40.998;2023-02-03T10:13:31;99504.34;;;-1.19;100.00
42859;BME280;28505;56.970;40.998;2023-02-03T10:19:01;99505.03;;;-1.23;100.00
42859;BME280;28505;56.970;40.998;2023-02-03T10:30:38;99508.84;;;-1.31;100.00
42859;BME280;28505;56.970;40.998;2023-02-03T10:36:22;99487.19;;;-1.39;100.00
42859;BME280;28505;56.970;40.998;2023-02-03T10:41:48;99478.22;;;-1.38;100.00
42859;BME280;28505;56.970;40.998;2023-02-03T10:47:32;99498.81;;;-1.29;100.00
42859;BME280;28505;56.970;40.998;2023-02-03T10:53:23;99472.06;;;-1.51;100.00
42859;BME280;28505;56.970;40.998;2023-02-03T10:58:50;99487.28;;;-1.34;100.00
42859;BME280;28505;56.970;40.998;2023-02-03T11:09:48;99491.13;;;-1.30;100.00
42859;BME280;28505;56.970;40.998;2023-02-03T11:15:14;99475.34;;;-1.37;100.00
42859;BME280;28505;56.970;40.998;2023-02-03T11:20:38;99475.34;;;-1.37;100.00
42859;BME280;28505;56.970;40.998;2023-02-03T11:26:12;99486.97;;;-1.26;100.00
42859;BME280;28505;56.970;40.998;2023-02-03T11:31:36;99480.31;;;-1.29;100.00
42859;BME280;28505;56.970;40.998;2023-02-03T11:37:55;99482.50;;;-1.26;100.00
42859;BME280;28505;56.970;40.998;2023-02-03T11:49:07;99502.63;;;-1.13;100.00
42859;BME280;28505;56.970;40.998;2023-02-03T11:54:27;99504.84;;;-1.10;100.00
42859;BME280;28505;56.970;40.998;2023-02-03T12:06:11;99504.59;;;-1.20;100.00
42859;BME280;28505;56.970;40.998;2023-02-03T12:17:19;99505.16;;;-1.18;100.00
42859;BME280;28505;56.970;40.998;2023-02-03T12:23:21;99490.66;;;-1.27;100.00
42859;BME280;28505;56.970;40.998;2023-02-03T12:28:57;99483.75;;;-1.28;100.00
42859;BME280;28505;56.970;40.998;2023-02-03T12:34:34;99492.16;;;-1.20;100.00
42859;BME280;28505;56.970;40.998;2023-02-03T12:40:04;99484.81;;;-1.17;100.00
42859;BME280;28505;56.970;40.998;2023-02-03T12:45:33;99488.97;;;-1.10;100.00
42859;BME280;28505;56.970;40.998;2023-02-03T12:51:02;99478.25;;;-1.15;100.00
42859;BME280;28505;56.970;40.998;2023-02-03T12:56:31;99471.56;;;-1.29;100.00
42859;BME280;28505;56.970;40.998;2023-02-03T13:02:00;99465.13;;;-1.33;100.00
42859;BME280;28505;56.970;40.998;2023-02-03T13:08:30;99463.88;;;-1.31;100.00
42859;BME280;28505;56.970;40.998;2023-02-03T13:13:41;99493.78;;;-1.19;100.00
42859;BME280;28505;56.970;40.998;2023-02-03T13:19:14;99458.22;;;-1.34;100.00
42859;BME280;28505;56.970;40.998;2023-02-03T13:24:45;99483.44;;;-1.20;100.00
42859;BME280;28505;56.970;40.998;2023-02-03T13:30:30;99482.84;;;-1.22;100.00
42859;BME280;28505;56.970;40.998;2023-02-03T13:46:50;99485.59;;;-1.29;100.00
42859;BME280;28505;56.970;40.998;2023-02-03T13:52:28;99463.75;;;-1.36;100.00
42859;BME280;28505;56.970;40.998;2023-02-03T13:57:53;99499.31;;;-1.20;100.00
42859;BME280;28505;56.970;40.998;2023-02-03T14:03:41;99500.69;;;-1.17;100.00
42859;BME280;28505;56.970;40.998;2023-02-03T14:14:56;99500.44;;;-1.16;100.00
42859;BME280;28505;56.970;40.998;2023-02-03T14:25:50;99506.34;;;-1.14;100.00
42859;BME280;28505;56.970;40.998;2023-02-03T14:31:17;99503.91;;;-1.15;100.00
42859;BME280;28505;56.970;40.998;2023-02-03T14:36:47;99489.03;;;-1.28;100.00
42859;BME280;28505;56.970;40.998;2023-02-03T14:42:18;99503.09;;;-1.16;100.00
42859;BME280;28505;56.970;40.998;2023-02-03T14:58:35;99505.88;;;-1.11;100.00
42859;BME280;28505;56.970;40.998;2023-02-03T15:09:43;99486.63;;;-1.30;100.00
42859;BME280;28505;56.970;40.998;2023-02-03T15:15:25;99515.88;;;-1.13;100.00
42859;BME280;28505;56.970;40.998;2023-02-03T15:20:53;99511.03;;;-1.16;100.00
42859;BME280;28505;56.970;40.998;2023-02-03T15:26:18;99504.00;;;-1.22;100.00
42859;BME280;28505;56.970;40.998;2023-02-03T15:31:43;99503.78;;;-1.21;100.00
42859;BME280;28505;56.970;40.998;2023-02-03T15:37:22;99524.94;;;-1.09;100.00
42859;BME280;28505;56.970;40.998;2023-02-03T15:54:10;99496.53;;;-1.25;100.00
42859;BME280;28505;56.970;40.998;2023-02-03T15:59:41;99506.19;;;-1.19;100.00
42859;BME280;28505;56.970;40.998;2023-02-03T16:05:33;99531.41;;;-1.05;100.00
42859;BME280;28505;56.970;40.998;2023-02-03T16:11:01;99500.31;;;-1.21;100.00
42859;BME280;28505;56.970;40.998;2023-02-03T16:16:48;99516.00;;;-1.08;100.00
42859;BME280;28505;56.970;40.998;2023-02-03T16:22:34;99522.91;;;-1.07;100.00
42859;BME280;28505;56.970;40.998;2023-02-03T16:28:17;99512.63;;;-1.15;100.00
42859;BME280;28505;56.970;40.998;2023-02-03T16:34:00;99507.22;;;-1.20;100.00
42859;BME280;28505;56.970;40.998;2023-02-03T16:39:41;99519.41;;;-1.19;100.00
42859;BME280;28505;56.970;40.998;2023-02-03T16:45:23;99529.69;;;-1.11;100.00
42859;BME280;28505;56.970;40.998;2023-02-03T16:51:10;99520.47;;;-1.20;100.00
42859;BME280;28505;56.970;40.998;2023-02-03T16:56:34;99528.94;;;-1.18;100.00
42859;BME280;28505;56.970;40.998;2023-02-03T17:01:56;99521.47;;;-1.21;100.00
42859;BME280;28505;56.970;40.998;2023-02-03T17:07:19;99539.69;;;-1.13;100.00
42859;BME280;28505;56.970;40.998;2023-02-03T17:12:41;99531.59;;;-1.18;100.00
42859;BME280;28505;56.970;40.998;2023-02-03T17:18:03;99526.31;;;-1.18;100.00
42859;BME280;28505;56.970;40.998;2023-02-03T17:23:28;99543.25;;;-1.07;100.00
42859;BME280;28505;56.970;40.998;2023-02-03T17:28:50;99532.78;;;-1.14;100.00
42859;BME280;28505;56.970;40.998;2023-02-03T17:34:12;99543.03;;;-1.06;100.00
42859;BME280;28505;56.970;40.998;2023-02-03T17:39:35;99540.63;;;-1.07;100.00
42859;BME280;28505;56.970;40.998;2023-02-03T17:45:14;99554.88;;;-0.97;100.00
42859;BME280;28505;56.970;40.998;2023-02-03T17:50:53;99538.78;;;-1.07;100.00
42859;BME280;28505;56.970;40.998;2023-02-03T17:56:33;99541.97;;;-1.05;100.00
42859;BME280;28505;56.970;40.998;2023-02-03T18:01:56;99548.81;;;-0.97;100.00
42859;BME280;28505;56.970;40.998;2023-02-03T18:07:34;99552.94;;;-0.89;100.00
42859;BME280;28505;56.970;40.998;2023-02-03T18:12:57;99567.31;;;-0.85;100.00
42859;BME280;28505;56.970;40.998;2023-02-03T18:18:27;99522.19;;;-1.14;100.00
42859;BME280;28505;56.970;40.998;2023-02-03T18:23:54;99529.34;;;-1.14;100.00
42859;BME280;28505;56.970;40.998;2023-02-03T18:29:36;99546.13;;;-1.09;100.00
42859;BME280;28505;56.970;40.998;2023-02-03T18:35:04;99529.41;;;-1.21;100.00
42859;BME280;28505;56.970;40.998;2023-02-03T18:40:32;99537.63;;;-1.11;100.00
42859;BME280;28505;56.970;40.998;2023-02-03T18:45:55;99567.97;;;-1.02;100.00
42859;BME280;28505;56.970;40.998;2023-02-03T18:51:19;99537.28;;;-1.14;100.00
42859;BME280;28505;56.970;40.998;2023-02-03T18:56:42;99573.88;;;-1.00;100.00
42859;BME280;28505;56.970;40.998;2023-02-03T19:02:05;99571.00;;;-0.98;100.00
42859;BME280;28505;56.970;40.998;2023-02-03T19:07:30;99548.66;;;-1.14;100.00
42859;BME280;28505;56.970;40.998;2023-02-03T19:12:52;99576.66;;;-0.95;100.00
42859;BME280;28505;56.970;40.998;2023-02-03T19:18:14;99555.78;;;-1.03;100.00
42859;BME280;28505;56.970;40.998;2023-02-03T19:23:38;99572.81;;;-0.99;100.00
42859;BME280;28505;56.970;40.998;2023-02-03T19:29:00;99547.16;;;-1.10;100.00
42859;BME280;28505;56.970;40.998;2023-02-03T19:34:23;99554.28;;;-1.10;100.00
42859;BME280;28505;56.970;40.998;2023-02-03T19:39:48;99557.75;;;-1.10;100.00
42859;BME280;28505;56.970;40.998;2023-02-03T19:45:11;99557.84;;;-1.05;100.00
42859;BME280;28505;56.970;40.998;2023-02-03T19:50:34;99565.78;;;-1.05;100.00
42859;BME280;28505;56.970;40.998;2023-02-03T19:55:59;99575.34;;;-1.04;100.00
42859;BME280;28505;56.970;40.998;2023-02-03T20:01:23;99586.88;;;-0.98;100.00
42859;BME280;28505;56.970;40.998;2023-02-03T20:06:46;99570.63;;;-1.13;100.00
42859;BME280;28505;56.970;40.998;2023-02-03T20:12:08;99531.69;;;-1.36;100.00
42859;BME280;28505;56.970;40.998;2023-02-03T20:17:31;99554.59;;;-1.30;100.00
42859;BME280;28505;56.970;40.998;2023-02-03T20:22:53;99567.22;;;-1.32;100.00
42859;BME280;28505;56.970;40.998;2023-02-03T20:28:16;99558.69;;;-1.34;100.00
42859;BME280;28505;56.970;40.998;2023-02-03T20:33:38;99554.69;;;-1.37;100.00
42859;BME280;28505;56.970;40.998;2023-02-03T20:39:01;99585.69;;;-1.14;100.00
42859;BME280;28505;56.970;40.998;2023-02-03T20:44:23;99577.94;;;-1.27;100.00
42859;BME280;28505;56.970;40.998;2023-02-03T20:49:46;99634.28;;;-0.97;100.00
42859;BME280;28505;56.970;40.998;2023-02-03T20:55:18;99613.50;;;-1.11;100.00
42859;BME280;28505;56.970;40.998;2023-02-03T21:00:41;99611.34;;;-1.14;100.00
42859;BME280;28505;56.970;40.998;2023-02-03T21:06:18;99636.69;;;-0.95;100.00
42859;BME280;28505;56.970;40.998;2023-02-03T21:11:41;99627.22;;;-1.03;100.00
42859;BME280;28505;56.970;40.998;2023-02-03T21:22:36;99630.31;;;-1.06;100.00
42859;BME280;28505;56.970;40.998;2023-02-03T21:27:59;99634.56;;;-1.05;100.00
42859;BME280;28505;56.970;40.998;2023-02-03T21:33:35;99649.91;;;-0.95;100.00
42859;BME280;28505;56.970;40.998;2023-02-03T21:44:59;99638.25;;;-1.06;100.00
42859;BME280;28505;56.970;40.998;2023-02-03T21:55:50;99642.66;;;-1.00;100.00
42859;BME280;28505;56.970;40.998;2023-02-03T22:01:12;99651.41;;;-0.99;100.00
42859;BME280;28505;56.970;40.998;2023-02-03T22:06:44;99625.91;;;-1.12;100.00
42859;BME280;28505;56.970;40.998;2023-02-03T22:12:09;99651.41;;;-0.99;100.00
42859;BME280;28505;56.970;40.998;2023-02-03T22:17:31;99641.59;;;-1.10;100.00
42859;BME280;28505;56.970;40.998;2023-02-03T22:22:53;99633.75;;;-1.17;100.00
42859;BME280;28505;56.970;40.998;2023-02-03T22:28:16;99665.22;;;-0.97;100.00
42859;BME280;28505;56.970;40.998;2023-02-03T22:33:39;99647.53;;;-1.15;100.00
42859;BME280;28505;56.970;40.998;2023-02-03T22:39:01;99666.91;;;-1.03;100.00
42859;BME280;28505;56.970;40.998;2023-02-03T22:44:24;99672.19;;;-1.03;100.00
42859;BME280;28505;56.970;40.998;2023-02-03T22:49:46;99635.44;;;-1.23;100.00
42859;BME280;28505;56.970;40.998;2023-02-03T22:55:08;99672.78;;;-1.01;100.00
42859;BME280;28505;56.970;40.998;2023-02-03T23:00:31;99668.75;;;-1.03;100.00
42859;BME280;28505;56.970;40.998;2023-02-03T23:05:53;99638.69;;;-1.21;100.00
42859;BME280;28505;56.970;40.998;2023-02-03T23:11:17;99673.44;;;-1.05;100.00
42859;BME280;28505;56.970;40.998;2023-02-03T23:16:39;99643.72;;;-1.19;100.00
42859;BME280;28505;56.970;40.998;2023-02-03T23:22:02;99661.34;;;-1.13;100.00
42859;BME280;28505;56.970;40.998;2023-02-03T23:27:24;99659.31;;;-1.11;100.00
42859;BME280;28505;56.970;40.998;2023-02-03T23:32:46;99682.78;;;-1.03;100.00
42859;BME280;28505;56.970;40.998;2023-02-03T23:38:08;99652.09;;;-1.22;100.00
42859;BME280;28505;56.970;40.998;2023-02-03T23:43:30;99680.59;;;-1.06;100.00
42859;BME280;28505;56.970;40.998;2023-02-03T23:48:53;99650.63;;;-1.18;100.00
42859;BME280;28505;56.970;40.998;2023-02-03T23:54:15;99672.75;;;-1.12;100.00
